Time;durP1;ratioP1;P1;durP2;ratioP2;P2;SDS_P1;SDS_P2;PMS_P1;PMS_P2;Temp;Humidity;BMP_temperature;BMP_pressure;BME280_temperature;BME280_humidity;BME280_pressure;Samples;Min_cycle;Max_cycle;Signal;HPM_P1;HPM_P2
2023/08/21 00:01:31;;;;;;;11.20;5.97;;;19.30;99.90;;;;;;5069245;28;20036;-61
2023/08/21 00:03:57;;;;;;;8.95;6.07;;;19.40;99.90;;;;;;5071967;28;20048;-60
2023/08/21 00:06:24;;;;;;;13.90;6.72;;;19.40;99.90;;;;;;5071763;28;20072;-61
2023/08/21 00:09:02;;;;;;;15.13;6.63;;;19.30;99.90;;;;;;5071871;28;20098;-61
2023/08/21 00:11:29;;;;;;;14.20;6.22;;;19.40;99.90;;;;;;5063821;28;20048;-60
2023/08/21 00:13:56;;;;;;;11.95;7.05;;;19.40;99.90;;;;;;5062588;28;20055;-60
2023/08/21 00:16:23;;;;;;;10.77;6.88;;;19.20;99.90;;;;;;5071157;28;20048;-59
2023/08/21 00:18:50;;;;;;;8.00;6.15;;;19.30;99.90;;;;;;5071376;28;20401;-59
2023/08/21 00:21:16;;;;;;;11.45;7.05;;;19.20;99.90;;;;;;5071131;28;20040;-60
2023/08/21 00:23:43;;;;;;;11.40;6.55;;;19.20;99.90;;;;;;5063529;28;20115;-59
2023/08/21 00:26:10;;;;;;;12.23;6.30;;;19.20;99.90;;;;;;5069013;28;20049;-60
2023/08/21 00:28:37;;;;;;;8.75;6.88;;;19.20;99.90;;;;;;5074486;28;20048;-59
2023/08/21 00:31:05;;;;;;;8.35;6.35;;;19.20;99.90;;;;;;5068422;28;20094;-61
2023/08/21 00:33:33;;;;;;;11.18;6.85;;;19.10;99.90;;;;;;5063014;28;20265;-60
2023/08/21 00:36:00;;;;;;;13.07;6.38;;;19.00;99.90;;;;;;5067467;28;20048;-60
2023/08/21 00:38:27;;;;;;;11.45;6.78;;;19.00;99.90;;;;;;5070998;28;20488;-61
2023/08/21 00:40:54;;;;;;;10.93;6.30;;;19.00;99.90;;;;;;5053838;28;20394;-61
2023/08/21 00:43:21;;;;;;;11.65;7.10;;;19.00;99.90;;;;;;5073625;28;20490;-60
2023/08/21 00:45:48;;;;;;;;;;;19.00;99.90;;;;;;5078809;28;20102;-61
2023/08/21 00:48:15;;;;;;;10.35;6.28;;;18.90;99.90;;;;;;5066552;28;20280;-60
2023/08/21 00:50:43;;;;;;;13.75;6.82;;;18.90;99.90;;;;;;5045064;28;20068;-61
2023/08/21 00:53:10;;;;;;;13.50;7.45;;;18.80;99.90;;;;;;5069689;28;20043;-61
2023/08/21 00:55:37;;;;;;;11.48;6.47;;;18.80;99.90;;;;;;5051494;28;20041;-60
2023/08/21 00:58:05;;;;;;;8.07;6.63;;;18.80;99.90;;;;;;5053278;28;20041;-61
2023/08/21 01:00:32;;;;;;;;;;;18.80;99.90;;;;;;5042442;28;20519;-60
2023/08/21 01:02:59;;;;;;;11.83;6.73;;;18.70;99.90;;;;;;5052267;28;20026;-60
2023/08/21 01:05:26;;;;;;;12.95;6.28;;;18.70;99.90;;;;;;5070296;28;20790;-61
2023/08/21 01:08:08;;;;;;;7.10;5.78;;;18.70;99.90;;;;;;5053315;28;20052;-60
2023/08/21 01:10:50;;;;;;;12.60;7.03;;;18.70;99.90;;;;;;5063555;28;20033;-60
2023/08/21 01:13:22;;;;;;;9.98;6.53;;;18.70;99.90;;;;;;5063258;28;20041;-60
2023/08/21 01:15:51;;;;;;;10.30;6.78;;;18.60;99.90;;;;;;5071132;28;20532;-58
2023/08/21 01:18:20;;;;;;;13.52;7.40;;;18.60;99.90;;;;;;5070145;28;20077;-61
2023/08/21 01:20:48;;;;;;;10.60;6.72;;;18.60;99.90;;;;;;5059412;28;20055;-59
2023/08/21 01:23:36;;;;;;;14.80;8.07;;;18.50;99.90;;;;;;5075819;28;20592;-60
2023/08/21 01:26:04;;;;;;;11.93;6.50;;;18.60;99.90;;;;;;5077791;28;20041;-61
2023/08/21 01:28:34;;;;;;;15.98;7.88;;;18.70;99.90;;;;;;5077670;28;20438;-60
2023/08/21 01:31:01;;;;;;;14.65;7.13;;;18.70;99.90;;;;;;5077070;28;20034;-61
2023/08/21 01:33:33;;;;;;;10.98;6.88;;;18.70;99.90;;;;;;5058264;28;20044;-61
2023/08/21 01:36:03;;;;;;;17.48;7.15;;;18.80;99.90;;;;;;5058971;28;20044;-60
2023/08/21 01:38:33;;;;;;;10.70;7.32;;;18.80;99.90;;;;;;5077550;28;20064;-61
2023/08/21 01:40:59;;;;;;;13.85;6.50;;;18.80;99.90;;;;;;5059491;28;20051;-60
2023/08/21 01:43:26;;;;;;;16.50;6.80;;;18.80;99.90;;;;;;5054255;28;20055;-61
2023/08/21 01:45:54;;;;;;;10.95;6.28;;;18.70;99.90;;;;;;5047576;28;20059;-61
2023/08/21 01:48:20;;;;;;;;;;;18.80;99.90;;;;;;5052134;28;20489;-60
2023/08/21 01:50:47;;;;;;;10.98;7.28;;;18.70;99.90;;;;;;5058959;28;20007;-60
2023/08/21 01:53:14;;;;;;;10.75;6.57;;;18.70;99.90;;;;;;5075171;28;20044;-61
2023/08/21 01:55:40;;;;;;;11.90;7.05;;;18.60;99.90;;;;;;5084676;28;20060;-60
2023/08/21 01:58:07;;;;;;;10.43;7.20;;;18.60;99.90;;;;;;5076489;28;20041;-61
2023/08/21 02:00:34;;;;;;;12.23;7.32;;;18.60;99.90;;;;;;5059616;28;20409;-60
2023/08/21 02:03:01;;;;;;;12.55;7.43;;;18.60;99.90;;;;;;5058119;28;20508;-60
2023/08/21 02:05:28;;;;;;;;;;;18.60;99.90;;;;;;5084763;28;20048;-60
2023/08/21 02:07:54;;;;;;;12.43;7.43;;;18.50;99.90;;;;;;5059347;28;19920;-61
2023/08/21 02:10:21;;;;;;;11.35;7.50;;;18.50;99.90;;;;;;5093030;28;20045;-60
2023/08/21 02:12:50;;;;;;;14.70;7.18;;;18.50;99.90;;;;;;5090544;28;20064;-61
2023/08/21 02:15:16;;;;;;;19.38;7.43;;;18.50;99.90;;;;;;5058976;28;20134;-62
2023/08/21 02:17:44;;;;;;;10.63;7.80;;;18.50;99.90;;;;;;5092842;28;20047;-60
2023/08/21 02:20:12;;;;;;;13.50;7.45;;;18.50;99.90;;;;;;5075435;28;20094;-60
2023/08/21 02:22:39;;;;;;;15.23;8.48;;;18.50;99.90;;;;;;5077363;28;20408;-60
2023/08/21 02:25:06;;;;;;;;;;;18.50;99.90;;;;;;5075691;28;20052;-59
2023/08/21 02:27:36;;;;;;;9.20;6.82;;;18.40;99.90;;;;;;5083001;28;19927;-61
2023/08/21 02:30:04;;;;;;;17.38;7.68;;;18.30;99.90;;;;;;5076129;28;20037;-61
2023/08/21 02:32:31;;;;;;;;;;;18.30;99.90;;;;;;5055968;28;20531;-61
2023/08/21 02:34:59;;;;;;;9.50;7.30;;;18.20;99.90;;;;;;5051532;28;20368;-59
2023/08/21 02:37:26;;;;;;;11.02;7.55;;;18.20;99.90;;;;;;5072017;28;20052;-61
2023/08/21 02:39:54;;;;;;;8.52;6.97;;;18.20;99.90;;;;;;5074409;28;20226;-61
2023/08/21 02:42:21;;;;;;;8.95;7.15;;;18.20;99.90;;;;;;5073873;28;20056;-61
2023/08/21 02:44:48;;;;;;;11.80;8.05;;;18.20;99.90;;;;;;5053333;28;20056;-60
2023/08/21 02:47:15;;;;;;;12.68;7.78;;;18.20;99.90;;;;;;5073580;28;20040;-60
2023/08/21 02:49:41;;;;;;;12.05;7.00;;;18.10;99.90;;;;;;5077337;28;20041;-60
2023/08/21 02:52:08;;;;;;;10.10;7.60;;;18.20;99.90;;;;;;5069338;28;20045;-60
2023/08/21 02:54:35;;;;;;;13.02;8.25;;;18.10;99.90;;;;;;5053492;28;20128;-61
2023/08/21 02:57:02;;;;;;;10.13;6.93;;;18.10;99.90;;;;;;5089057;28;20052;-60
2023/08/21 02:59:28;;;;;;;12.10;7.55;;;18.10;99.90;;;;;;5078959;28;20398;-61
2023/08/21 03:01:55;;;;;;;14.70;7.55;;;18.00;99.90;;;;;;5048647;28;20041;-59
2023/08/21 03:04:23;;;;;;;10.20;6.82;;;18.00;99.90;;;;;;5054829;28;20032;-59
2023/08/21 03:06:50;;;;;;;11.82;7.03;;;18.00;99.90;;;;;;5088454;28;20044;-61
2023/08/21 03:09:16;;;;;;;11.93;7.25;;;17.90;99.90;;;;;;5089130;28;20048;-61
2023/08/21 03:11:43;;;;;;;11.90;7.00;;;17.90;99.90;;;;;;5083724;28;20051;-61
2023/08/21 03:14:10;;;;;;;11.43;7.50;;;17.90;99.90;;;;;;5073495;28;20052;-60
2023/08/21 03:16:37;;;;;;;12.88;7.40;;;17.90;99.90;;;;;;5071578;28;20040;-61
2023/08/21 03:19:03;;;;;;;10.02;7.47;;;17.80;99.90;;;;;;5063597;28;20147;-61
2023/08/21 03:21:31;;;;;;;10.43;7.75;;;17.90;99.90;;;;;;5053299;28;20512;-59
2023/08/21 03:23:59;;;;;;;17.92;8.20;;;17.90;99.90;;;;;;5072668;28;20591;-60
2023/08/21 03:26:29;;;;;;;13.63;7.53;;;17.90;99.90;;;;;;5072650;28;20031;-61
2023/08/21 03:28:56;;;;;;;10.57;6.68;;;17.80;99.90;;;;;;5064681;28;20044;-60
2023/08/21 03:31:23;;;;;;;8.80;6.22;;;17.70;99.90;;;;;;5071697;28;20049;-60
2023/08/21 03:33:50;;;;;;;13.52;7.75;;;17.70;99.90;;;;;;5072948;28;20041;-61
2023/08/21 03:36:20;;;;;;;13.40;7.00;;;17.70;99.90;;;;;;5076795;28;20045;-60
2023/08/21 03:38:47;;;;;;;13.35;7.45;;;17.70;99.90;;;;;;5046709;28;20060;-61
2023/08/21 03:41:14;;;;;;;14.65;6.95;;;17.70;99.90;;;;;;5041423;28;20049;-61
2023/08/21 03:43:41;;;;;;;10.68;7.07;;;17.70;99.90;;;;;;5043156;28;20071;-61
2023/08/21 03:46:08;;;;;;;13.63;7.65;;;17.70;99.90;;;;;;5066833;28;20044;-61
2023/08/21 03:48:35;;;;;;;15.90;7.20;;;17.70;99.90;;;;;;5051655;28;20489;-61
2023/08/21 03:51:02;;;;;;;12.93;7.03;;;17.70;99.90;;;;;;5054297;28;20044;-59
2023/08/21 03:53:30;;;;;;;12.88;7.60;;;17.60;99.90;;;;;;5086472;28;20036;-61
2023/08/21 03:55:57;;;;;;;12.60;7.05;;;17.70;99.90;;;;;;5083017;28;20044;-60
2023/08/21 03:58:25;;;;;;;19.08;7.82;;;17.60;99.90;;;;;;5053162;28;20051;-59
2023/08/21 04:00:55;;;;;;;13.82;7.28;;;17.60;99.90;;;;;;5086942;28;20037;-59
2023/08/21 04:03:23;;;;;;;17.27;7.47;;;17.60;99.90;;;;;;5087434;28;20090;-59
2023/08/21 04:05:50;;;;;;;12.95;7.20;;;17.60;99.90;;;;;;5034206;28;20409;-60
2023/08/21 04:08:19;;;;;;;10.45;7.72;;;17.60;99.90;;;;;;5071709;28;20076;-61
2023/08/21 04:10:45;;;;;;;11.18;6.93;;;17.60;99.90;;;;;;5069603;28;20492;-60
2023/08/21 04:13:12;;;;;;;11.10;7.80;;;17.60;99.90;;;;;;5053523;28;20041;-59
2023/08/21 04:15:43;;;;;;;10.20;7.22;;;17.60;99.90;;;;;;5052717;28;20051;-60
2023/08/21 04:18:11;;;;;;;13.98;7.80;;;17.60;99.90;;;;;;5069459;28;20037;-60
2023/08/21 04:20:40;;;;;;;11.43;7.70;;;17.70;99.90;;;;;;5071620;28;20048;-61
2023/08/21 04:23:07;;;;;;;10.40;7.90;;;17.70;99.90;;;;;;5071444;28;20578;-60
2023/08/21 04:25:36;;;;;;;12.50;8.07;;;17.60;99.90;;;;;;5050719;28;20037;-59
2023/08/21 04:28:03;;;;;;;13.88;7.28;;;17.70;99.90;;;;;;5051545;28;20086;-60
2023/08/21 04:30:29;;;;;;;10.98;7.60;;;17.70;99.90;;;;;;5052955;28;20044;-61
2023/08/21 04:32:56;;;;;;;13.35;7.22;;;17.70;99.90;;;;;;5071798;28;20043;-57
2023/08/21 04:35:24;;;;;;;9.85;7.60;;;17.70;99.90;;;;;;5051414;28;20052;-61
2023/08/21 04:37:50;;;;;;;11.88;7.85;;;17.70;99.90;;;;;;5062984;28;20033;-61
2023/08/21 04:40:21;;;;;;;11.73;7.65;;;17.70;99.90;;;;;;5053119;28;20059;-61
2023/08/21 04:42:48;;;;;;;12.57;7.63;;;17.70;99.90;;;;;;5086754;28;20106;-61
2023/08/21 04:45:15;;;;;;;10.15;7.30;;;17.60;99.90;;;;;;5070231;28;20053;-61
2023/08/21 04:47:43;;;;;;;14.88;7.10;;;17.60;99.90;;;;;;5070219;28;20106;-60
2023/08/21 04:50:12;;;;;;;8.75;6.78;;;17.70;99.90;;;;;;5053543;28;20051;-60
2023/08/21 04:52:38;;;;;;;11.23;7.63;;;17.60;99.90;;;;;;5086979;28;20080;-57
2023/08/21 04:55:06;;;;;;;;;;;17.70;99.90;;;;;;5079871;28;20968;-59
2023/08/21 04:57:34;;;;;;;;;;;17.70;99.90;;;;;;5050948;28;19954;-60
2023/08/21 05:00:05;;;;;;;12.85;6.65;;;17.70;99.90;;;;;;5053163;28;20007;-59
2023/08/21 05:02:36;;;;;;;16.15;6.63;;;17.80;99.90;;;;;;5075833;28;20166;-60
2023/08/21 05:05:05;;;;;;;10.73;6.60;;;17.80;99.90;;;;;;5086085;28;20040;-59
2023/08/21 05:07:33;;;;;;;12.52;7.22;;;17.90;99.90;;;;;;5070902;28;20392;-57
2023/08/21 05:10:01;;;;;;;9.60;6.55;;;17.90;99.90;;;;;;5072528;28;20048;-59
2023/08/21 05:12:31;;;;;;;11.25;7.13;;;18.00;99.90;;;;;;5048933;28;20028;-59
2023/08/21 05:14:58;;;;;;;12.57;7.30;;;18.00;99.90;;;;;;5061369;28;20028;-57
2023/08/21 05:17:26;;;;;;;12.80;7.45;;;18.00;99.90;;;;;;5070698;28;20072;-60
2023/08/21 05:19:54;;;;;;;10.32;7.00;;;18.10;99.90;;;;;;5067748;28;20044;-57
2023/08/21 05:22:21;;;;;;;10.40;7.38;;;18.00;99.90;;;;;;5076625;28;20036;-60
2023/08/21 05:24:47;;;;;;;16.83;7.60;;;18.00;99.90;;;;;;5046968;28;20079;-59
2023/08/21 05:27:15;;;;;;;;;;;18.00;99.90;;;;;;5050390;28;20493;-60
2023/08/21 05:29:41;;;;;;;16.02;6.85;;;18.10;99.90;;;;;;5069528;28;20415;-59
2023/08/21 05:32:08;;;;;;;12.50;8.10;;;18.10;99.90;;;;;;5064760;28;20049;-60
2023/08/21 05:34:35;;;;;;;12.73;7.25;;;18.20;99.90;;;;;;5048135;28;20044;-61
2023/08/21 05:37:02;;;;;;;13.35;7.55;;;18.20;99.90;;;;;;5047629;28;20501;-60
2023/08/21 05:39:30;;;;;;;12.57;6.97;;;18.20;99.90;;;;;;5048215;28;20032;-60
2023/08/21 05:41:58;;;;;;;15.55;7.82;;;18.30;99.90;;;;;;5084889;28;20040;-59
2023/08/21 05:44:25;;;;;;;10.02;7.03;;;18.30;99.90;;;;;;5048192;28;20443;-60
2023/08/21 05:46:52;;;;;;;12.38;7.30;;;18.30;99.90;;;;;;5068617;28;20056;-60
2023/08/21 05:49:19;;;;;;;9.15;6.75;;;18.30;99.90;;;;;;5051803;28;20443;-59
2023/08/21 05:51:45;;;;;;;15.93;7.60;;;18.40;99.90;;;;;;5052135;28;20518;-60
2023/08/21 05:54:12;;;;;;;12.93;7.32;;;18.50;99.90;;;;;;5052216;28;20358;-58
2023/08/21 05:56:41;;;;;;;11.60;6.88;;;18.60;99.90;;;;;;5072995;28;20056;-60
2023/08/21 05:59:10;;;;;;;10.82;7.10;;;18.70;99.90;;;;;;5082173;28;20137;-60
2023/08/21 06:01:37;;;;;;;12.73;7.45;;;18.70;99.90;;;;;;5074337;28;20051;-61
2023/08/21 06:04:04;;;;;;;10.25;6.25;;;18.80;99.90;;;;;;5086446;28;20048;-61
2023/08/21 06:06:37;;;;;;;12.48;6.82;;;18.80;99.90;;;;;;5073414;28;20049;-61
2023/08/21 06:09:04;;;;;;;16.75;7.68;;;18.80;99.90;;;;;;5090112;28;20550;-61
2023/08/21 06:11:31;;;;;;;15.98;7.40;;;18.90;99.90;;;;;;5072994;28;20040;-59
2023/08/21 06:13:58;;;;;;;10.40;6.97;;;18.90;99.90;;;;;;5071495;28;20132;-61
2023/08/21 06:16:25;;;;;;;10.10;6.32;;;18.90;99.90;;;;;;5073846;28;20070;-61
2023/08/21 06:18:51;;;;;;;13.05;7.45;;;19.00;99.90;;;;;;5056429;28;20071;-61
2023/08/21 06:21:18;;;;;;;13.00;6.70;;;19.10;99.90;;;;;;5055859;28;20453;-61
2023/08/21 06:23:45;;;;;;;12.38;7.20;;;19.20;99.90;;;;;;5067289;28;20044;-61
2023/08/21 06:26:12;;;;;;;10.45;7.40;;;19.20;99.90;;;;;;5078923;28;20081;-59
2023/08/21 06:28:38;;;;;;;10.02;7.32;;;19.30;99.90;;;;;;5055186;28;20433;-60
2023/08/21 06:31:08;;;;;;;12.68;7.38;;;19.40;99.90;;;;;;5055629;28;20485;-61
2023/08/21 06:33:35;;;;;;;12.70;7.07;;;19.60;99.90;;;;;;5072942;28;20444;-60
2023/08/21 06:36:01;;;;;;;11.93;7.55;;;19.70;99.90;;;;;;5054959;28;20036;-60
2023/08/21 06:38:28;;;;;;;12.60;7.78;;;19.90;99.90;;;;;;5053095;28;20401;-60
2023/08/21 06:40:55;;;;;;;13.02;7.47;;;20.10;99.90;;;;;;5072077;28;20052;-60
2023/08/21 06:43:22;;;;;;;12.25;6.93;;;20.20;99.90;;;;;;5072143;28;20064;-59
2023/08/21 06:45:49;;;;;;;10.32;7.28;;;20.40;99.90;;;;;;5053297;28;20044;-59
2023/08/21 06:48:18;;;;;;;14.95;7.70;;;20.50;99.90;;;;;;5080147;28;20626;-59
2023/08/21 06:50:45;;;;;;;10.43;6.97;;;20.60;99.90;;;;;;5073051;28;20080;-61
2023/08/21 06:53:11;;;;;;;16.45;7.65;;;20.70;99.90;;;;;;5064982;28;20528;-60
2023/08/21 06:55:38;;;;;;;11.68;6.90;;;20.80;99.90;;;;;;5069411;28;20068;-60
2023/08/21 06:58:05;;;;;;;14.10;7.13;;;21.00;99.90;;;;;;5073184;28;20416;-59
2023/08/21 07:00:32;;;;;;;9.50;6.57;;;21.10;99.90;;;;;;5073215;28;20037;-61
2023/08/21 07:02:58;;;;;;;10.43;7.03;;;21.30;99.90;;;;;;5066978;28;20048;-61
2023/08/21 07:05:25;;;;;;;14.40;7.25;;;21.20;99.90;;;;;;5072500;28;20404;-59
2023/08/21 07:07:53;;;;;;;16.55;7.18;;;21.30;99.90;;;;;;5072474;28;20562;-61
2023/08/21 07:10:19;;;;;;;14.93;6.95;;;21.40;99.90;;;;;;5066723;28;20084;-61
2023/08/21 07:12:46;;;;;;;14.05;7.18;;;21.50;99.90;;;;;;5066984;28;20043;-61
2023/08/21 07:15:13;;;;;;;13.40;7.30;;;21.60;99.90;;;;;;5072614;28;20040;-60
2023/08/21 07:17:40;;;;;;;19.42;7.00;;;21.70;99.90;;;;;;5072485;28;20047;-59
2023/08/21 07:20:07;;;;;;;12.90;6.85;;;21.80;99.90;;;;;;5072926;28;20488;-60
2023/08/21 07:22:34;;;;;;;;;;;21.90;99.90;;;;;;5062467;28;20545;-60
2023/08/21 07:25:03;;;;;;;10.55;6.82;;;21.90;99.90;;;;;;5072182;28;19924;-61
2023/08/21 07:27:31;;;;;;;15.68;6.90;;;22.00;99.90;;;;;;5066716;28;20044;-61
2023/08/21 07:29:58;;;;;;;13.68;6.80;;;22.20;99.90;;;;;;5071834;28;20048;-60
2023/08/21 07:32:24;;;;;;;12.70;7.28;;;22.40;99.90;;;;;;5071833;28;20036;-60
2023/08/21 07:34:54;;;;;;;14.70;7.30;;;22.50;99.90;;;;;;5069665;28;20037;-59
2023/08/21 07:37:21;;;;;;;37.35;8.85;;;22.50;99.90;;;;;;5072135;28;20051;-61
2023/08/21 07:39:48;;;;;;;12.57;7.00;;;22.60;99.90;;;;;;5056202;28;20116;-60
2023/08/21 07:42:15;;;;;;;8.18;6.60;;;22.70;99.90;;;;;;5072448;28;20040;-61
2023/08/21 07:44:41;;;;;;;12.43;7.57;;;22.80;99.90;;;;;;5072136;28;20052;-60
2023/08/21 07:47:08;;;;;;;10.18;6.38;;;22.90;99.90;;;;;;5066619;28;20044;-61
2023/08/21 07:49:35;;;;;;;10.02;7.47;;;23.00;99.90;;;;;;5057116;28;20041;-61
2023/08/21 07:52:04;;;;;;;9.82;6.93;;;23.10;99.90;;;;;;5069872;28;20049;-61
2023/08/21 07:54:30;;;;;;;12.45;6.68;;;23.20;99.90;;;;;;5071852;28;20047;-61
2023/08/21 07:56:57;;;;;;;11.95;7.00;;;23.40;99.90;;;;;;5062471;28;20041;-61
2023/08/21 07:59:25;;;;;;;12.50;6.80;;;23.50;99.90;;;;;;5072566;28;20036;-59
2023/08/21 08:01:51;;;;;;;9.30;6.93;;;23.60;99.90;;;;;;5069849;28;20048;-61
2023/08/21 08:04:19;;;;;;;11.30;7.03;;;23.70;99.90;;;;;;5071641;28;20045;-61
2023/08/21 08:06:47;;;;;;;14.23;6.22;;;23.80;99.90;;;;;;5070779;28;20040;-61
2023/08/21 08:09:13;;;;;;;11.82;6.40;;;23.90;99.90;;;;;;5070628;28;20122;-61
2023/08/21 08:11:40;;;;;;;10.75;5.97;;;24.00;99.90;;;;;;5067288;28;20052;-61
2023/08/21 08:14:07;;;;;;;10.60;6.70;;;24.10;99.90;;;;;;5071524;28;20047;-61
2023/08/21 08:16:33;;;;;;;15.82;7.15;;;24.20;99.90;;;;;;5071376;28;20044;-61
2023/08/21 08:19:00;;;;;;;14.00;7.38;;;24.30;99.90;;;;;;5063076;28;20123;-61
2023/08/21 08:21:27;;;;;;;13.00;7.32;;;24.50;99.90;;;;;;5073631;28;20120;-60
2023/08/21 08:23:54;;;;;;;13.65;6.65;;;24.50;99.90;;;;;;5068320;28;20053;-61
2023/08/21 08:26:20;;;;;;;8.75;6.53;;;24.60;99.90;;;;;;5069580;28;20421;-60
2023/08/21 08:28:47;;;;;;;13.00;6.78;;;24.60;99.90;;;;;;5071204;28;20090;-59
2023/08/21 08:31:17;;;;;;;;;;;24.70;99.90;;;;;;5070864;28;20048;-61
2023/08/21 08:33:44;;;;;;;15.48;7.20;;;24.80;99.90;;;;;;5071591;28;19926;-61
2023/08/21 08:36:11;;;;;;;;;;;24.90;99.90;;;;;;5064177;28;20067;-60
2023/08/21 08:38:38;;;;;;;11.80;6.75;;;24.90;99.90;;;;;;5071496;28;19920;-61
2023/08/21 08:41:14;;;;;;;8.93;6.35;;;25.00;99.90;;;;;;5070888;28;20051;-61
2023/08/21 08:43:42;;;;;;;10.43;6.97;;;25.10;99.90;;;;;;5068106;28;20055;-61
2023/08/21 08:46:09;;;;;;;13.07;6.28;;;25.20;99.90;;;;;;5069704;28;20044;-61
2023/08/21 08:48:37;;;;;;;13.27;7.50;;;25.40;99.90;;;;;;5071019;28;20516;-60
2023/08/21 08:51:04;;;;;;;11.20;7.07;;;25.50;99.90;;;;;;5071069;28;20056;-61
2023/08/21 08:53:31;;;;;;;10.27;6.57;;;25.60;99.90;;;;;;5066398;28;20396;-61
2023/08/21 08:55:58;;;;;;;13.15;7.63;;;25.70;99.90;;;;;;5070665;28;20500;-61
2023/08/21 08:58:25;;;;;;;19.35;7.90;;;25.80;99.90;;;;;;5071111;28;20041;-60
2023/08/21 09:00:52;;;;;;;11.50;6.78;;;25.90;99.90;;;;;;5067121;28;20500;-61
2023/08/21 09:03:18;;;;;;;17.48;6.97;;;25.90;99.90;;;;;;5062902;28;20048;-61
2023/08/21 09:05:45;;;;;;;;;;;25.90;99.90;;;;;;5071762;28;20051;-61
2023/08/21 09:08:13;;;;;;;17.15;7.65;;;25.90;99.90;;;;;;5071072;28;19925;-61
2023/08/21 09:10:42;;;;;;;14.07;6.82;;;26.00;99.90;;;;;;5067099;28;20137;-61
2023/08/21 09:13:18;;;;;;;14.23;6.88;;;26.00;99.90;;;;;;5069425;28;20389;-61
2023/08/21 09:15:47;;;;;;;18.85;7.30;;;26.20;99.90;;;;;;5070604;28;20401;-60
2023/08/21 09:18:15;;;;;;;10.25;6.90;;;26.30;99.90;;;;;;5069375;28;20036;-61
2023/08/21 09:20:42;;;;;;;14.02;7.10;;;26.40;99.90;;;;;;5060539;28;20078;-61
2023/08/21 09:23:13;;;;;;;16.25;7.05;;;26.60;99.90;;;;;;5070608;28;20048;-61
2023/08/21 09:25:40;;;;;;;14.48;8.13;;;26.70;99.90;;;;;;5070490;28;20488;-59
2023/08/21 09:28:08;;;;;;;20.05;8.30;;;26.70;99.90;;;;;;5070789;28;20041;-61
2023/08/21 09:30:46;;;;;;;13.05;7.72;;;26.70;99.90;;;;;;5065552;28;20044;-61
2023/08/21 09:33:13;;;;;;;;;;;26.80;99.90;;;;;;5070904;28;20048;-61
2023/08/21 09:35:41;;;;;;;13.73;7.68;;;26.80;99.90;;;;;;5067966;28;19928;-60
2023/08/21 09:38:09;;;;;;;18.02;8.48;;;27.00;99.90;;;;;;5070142;28;20123;-61
2023/08/21 09:40:41;;;;;;;16.60;7.47;;;26.90;99.90;;;;;;5071984;28;20043;-61
2023/08/21 09:43:11;;;;;;;14.40;7.70;;;27.00;99.90;;;;;;5074648;28;20051;-61
2023/08/21 09:45:39;;;;;;;14.13;7.97;;;27.10;99.90;;;;;;5071174;28;20071;-61
2023/08/21 09:48:07;;;;;;;14.90;7.80;;;27.20;99.90;;;;;;5074546;28;20052;-61
2023/08/21 09:50:34;;;;;;;11.32;7.07;;;27.20;99.90;;;;;;5074801;28;20083;-61
2023/08/21 09:53:02;;;;;;;13.23;7.22;;;27.20;99.90;;;;;;5073401;28;20044;-60
2023/08/21 09:55:32;;;;;;;10.95;6.90;;;27.20;99.90;;;;;;5072633;28;20047;-61
2023/08/21 09:57:59;;;;;;;17.77;7.75;;;27.10;99.90;;;;;;5073681;28;20051;-61
2023/08/21 10:00:31;;;;;;;14.25;7.55;;;27.10;99.90;;;;;;5074434;28;20048;-61
2023/08/21 10:03:02;;;;;;;13.40;7.68;;;27.10;99.90;;;;;;5061089;28;20047;-61
2023/08/21 10:05:31;;;;;;;14.05;7.60;;;27.20;99.90;;;;;;5066455;28;20064;-61
2023/08/21 10:08:02;;;;;;;15.68;7.97;;;27.30;99.90;;;;;;5073949;28;20037;-61
2023/08/21 10:10:37;;;;;;;14.07;7.43;;;27.40;99.90;;;;;;5071713;28;20094;-61
2023/08/21 10:13:06;;;;;;;11.68;7.80;;;27.70;99.90;;;;;;5062772;28;20044;-61
2023/08/21 10:15:36;;;;;;;10.88;7.13;;;27.70;99.90;;;;;;5073762;28;20438;-60
2023/08/21 10:18:21;;;;;;;13.02;7.25;;;27.80;99.90;;;;;;5073677;28;20086;-61
2023/08/21 10:20:48;;;;;;;10.68;7.30;;;28.00;99.90;;;;;;5063337;28;20066;-61
2023/08/21 10:23:31;;;;;;;12.02;7.63;;;28.00;99.90;;;;;;5072273;28;20044;-61
2023/08/21 10:25:59;;;;;;;15.02;7.15;;;28.00;99.90;;;;;;5073373;28;20051;-60
2023/08/21 10:28:51;;;;;;;10.35;7.35;;;28.10;99.90;;;;;;5064632;28;20090;-61
2023/08/21 10:31:28;;;;;;;13.55;7.50;;;28.20;99.90;;;;;;5064536;28;20090;-61
2023/08/21 10:33:55;;;;;;;;;;;28.30;99.90;;;;;;5073953;28;20055;-61
2023/08/21 10:36:37;;;;;;;9.07;7.55;;;28.40;99.90;;;;;;5055423;28;19936;-61
2023/08/21 10:39:12;;;;;;;8.80;7.18;;;28.40;99.90;;;;;;5063019;28;20071;-61
2023/08/21 10:41:38;;;;;;;13.73;7.20;;;28.40;99.90;;;;;;5073474;28;20441;-61
2023/08/21 10:44:06;;;;;;;10.73;7.68;;;28.60;99.90;;;;;;5066860;28;20048;-61
2023/08/21 10:46:52;;;;;;;13.00;7.18;;;28.60;99.90;;;;;;5073375;28;20124;-61
2023/08/21 10:49:19;;;;;;;16.30;7.72;;;28.70;99.90;;;;;;5072373;28;20048;-61
2023/08/21 10:51:46;;;;;;;;;;;28.80;99.90;;;;;;5073329;28;20052;-61
2023/08/21 10:54:16;;;;;;;10.82;6.78;;;28.80;99.90;;;;;;5067176;28;19927;-61
2023/08/21 10:56:42;;;;;;;14.60;7.07;;;28.90;99.90;;;;;;5073605;28;20115;-61
2023/08/21 10:59:10;;;;;;;14.50;7.35;;;28.90;99.90;;;;;;5073048;28;20055;-61
2023/08/21 11:01:45;;;;;;;11.75;7.03;;;29.00;99.90;;;;;;5068014;28;20036;-61
2023/08/21 11:04:12;;;;;;;14.05;7.43;;;29.00;99.90;;;;;;5073162;28;20090;-61
2023/08/21 11:06:39;;;;;;;;;;;29.20;99.90;;;;;;5072979;28;20049;-61
2023/08/21 11:09:13;;;;;;;14.05;6.95;;;29.40;99.90;;;;;;5073143;28;20369;-61
2023/08/21 11:11:40;;;;;;;12.38;7.35;;;29.50;99.90;;;;;;5066940;28;20408;-61
2023/08/21 11:14:06;;;;;;;;;;;29.40;99.90;;;;;;5072983;28;20053;-61
2023/08/21 11:16:33;;;;;;;14.82;7.80;;;29.50;99.90;;;;;;5072756;28;19970;-61
2023/08/21 11:19:05;;;;;;;11.70;6.57;;;29.50;99.90;;;;;;5063622;28;20052;-61
2023/08/21 11:21:32;;;;;;;11.38;7.20;;;29.50;99.90;;;;;;5065144;28;20029;-61
2023/08/21 11:23:58;;;;;;;;;;;29.60;99.90;;;;;;5073014;28;20516;-61
2023/08/21 11:26:25;;;;;;;11.57;6.90;;;29.70;99.90;;;;;;5072541;28;19920;-61
2023/08/21 11:28:52;;;;;;;;;;;29.70;99.90;;;;;;5066055;28;20059;-61
2023/08/21 11:31:19;;;;;;;11.35;7.45;;;29.80;99.90;;;;;;5072663;28;20097;-61
2023/08/21 11:33:50;;;;;;;10.27;6.60;;;30.00;99.90;;;;;;5072054;28;20048;-61
2023/08/21 11:36:18;;;;;;;13.13;6.72;;;30.20;99.90;;;;;;5068827;28;20515;-61
2023/08/21 11:38:59;;;;;;;12.75;7.32;;;30.20;99.90;;;;;;5072251;28;20433;-61
2023/08/21 11:41:26;;;;;;;12.85;7.18;;;30.20;99.90;;;;;;5072270;28;20040;-61
2023/08/21 11:43:57;;;;;;;9.15;6.72;;;30.20;99.90;;;;;;5068135;28;20405;-61
2023/08/21 11:46:23;;;;;;;12.02;6.72;;;30.10;99.90;;;;;;5062520;28;20119;-61
2023/08/21 11:48:52;;;;;;;12.90;6.78;;;30.10;99.90;;;;;;5072298;28;20045;-61
2023/08/21 11:51:19;;;;;;;10.55;6.68;;;30.10;99.90;;;;;;5070818;28;20044;-61
2023/08/21 11:53:47;;;;;;;;;;;30.10;99.60;;;;;;5051860;28;20437;-60
2023/08/21 11:56:16;;;;;;;11.85;6.55;;;30.10;99.50;;;;;;5063567;28;19920;-61
2023/08/21 11:58:45;;;;;;;9.70;6.32;;;30.20;99.90;;;;;;5071975;28;20044;-61
2023/08/21 12:01:19;;;;;;;9.40;6.80;;;30.30;99.90;;;;;;5064831;28;20040;-61
2023/08/21 12:03:53;;;;;;;9.73;5.90;;;30.30;99.90;;;;;;5069229;28;20133;-61
2023/08/21 12:06:21;;;;;;;11.93;6.43;;;30.40;99.90;;;;;;5071634;28;20370;-61
2023/08/21 12:08:48;;;;;;;10.77;6.47;;;30.60;99.70;;;;;;5071706;28;20048;-61
2023/08/21 12:11:15;;;;;;;;;;;30.70;99.10;;;;;;5066916;28;20053;-60
2023/08/21 12:13:42;;;;;;;13.55;6.90;;;30.80;99.90;;;;;;5071827;28;19924;-61
2023/08/21 12:16:08;;;;;;;;;;;30.80;99.50;;;;;;5071825;28;20051;-61
2023/08/21 12:18:35;;;;;;;10.45;6.10;;;30.90;99.90;;;;;;5071691;28;19920;-61
2023/08/21 12:21:02;;;;;;;;;;;30.90;99.90;;;;;;5068698;28;20055;-61
2023/08/21 12:23:28;;;;;;;8.43;6.22;;;30.80;99.90;;;;;;5071591;28;20317;-61
2023/08/21 12:25:55;;;;;;;;;;;30.80;99.90;;;;;;5071320;28;20052;-61
2023/08/21 12:28:22;;;;;;;13.25;6.30;;;30.80;99.90;;;;;;5071427;28;19924;-61
2023/08/21 12:30:48;;;;;;;;;;;30.90;99.90;;;;;;5068258;28;20051;-60
2023/08/21 12:33:15;;;;;;;10.63;6.68;;;30.80;99.90;;;;;;5071170;28;19920;-61
2023/08/21 12:35:48;;;;;;;13.93;6.30;;;30.80;99.90;;;;;;5052906;28;20114;-59
2023/08/21 12:38:15;;;;;;;14.43;7.45;;;30.80;99.90;;;;;;5067069;28;20052;-61
2023/08/21 12:40:42;;;;;;;8.60;5.95;;;30.70;99.90;;;;;;5071445;28;20119;-61
2023/08/21 12:43:09;;;;;;;;;;;30.60;99.90;;;;;;5071789;28;20043;-59
2023/08/21 12:45:37;;;;;;;10.05;6.38;;;30.60;99.90;;;;;;5064381;28;20001;-59
2023/08/21 12:48:04;;;;;;;13.95;6.90;;;30.70;99.90;;;;;;5071055;28;20051;-61
2023/08/21 12:50:31;;;;;;;11.05;6.30;;;30.80;99.90;;;;;;5070561;28;20036;-59